createdAt,value
2023-04-06T00:00:53.563Z,1010.24
2023-04-06T00:01:53.601Z,1010.22
2023-04-06T00:02:53.571Z,1010.20
2023-04-06T00:03:53.636Z,1010.18
2023-04-06T00:04:53.480Z,1010.16
2023-04-06T00:05:53.495Z,1010.14
2023-04-06T00:06:53.453Z,1010.14
2023-04-06T00:07:53.437Z,1010.13
2023-04-06T00:08:53.449Z,1010.13
2023-04-06T00:09:53.441Z,1010.12
2023-04-06T00:10:53.431Z,1010.11
2023-04-06T00:11:53.424Z,1010.10
2023-04-06T00:12:53.442Z,1010.09
2023-04-06T00:13:53.420Z,1010.10
2023-04-06T00:14:53.483Z,1010.10
2023-04-06T00:15:53.381Z,1010.09
2023-04-06T00:16:53.371Z,1010.09
2023-04-06T00:17:53.422Z,1010.08
2023-04-06T00:18:53.363Z,1010.06
2023-04-06T00:19:53.378Z,1010.05
2023-04-06T00:20:53.308Z,1010.03
2023-04-06T00:21:53.413Z,1010.01
2023-04-06T00:22:53.303Z,1009.99
2023-04-06T00:23:53.298Z,1009.99
2023-04-06T00:24:53.302Z,1009.98
2023-04-06T00:25:53.284Z,1009.98
2023-04-06T00:26:53.292Z,1009.99
2023-04-06T00:27:53.241Z,1009.99
2023-04-06T00:28:53.247Z,1009.99
2023-04-06T00:29:53.235Z,1009.99
2023-04-06T00:30:53.247Z,1009.99
2023-04-06T00:31:53.295Z,1009.97
2023-04-06T00:32:53.212Z,1009.96
2023-04-06T00:33:53.189Z,1009.94
2023-04-06T00:34:53.199Z,1009.93
2023-04-06T00:35:53.239Z,1009.92
2023-04-06T00:36:53.146Z,1009.92
2023-04-06T00:37:53.196Z,1009.92
2023-04-06T00:38:53.158Z,1009.92
2023-04-06T00:39:53.119Z,1009.91
2023-04-06T00:40:53.125Z,1009.90
2023-04-06T00:41:53.150Z,1009.89
2023-04-06T00:42:53.119Z,1009.87
2023-04-06T00:43:53.144Z,1009.84
2023-04-06T00:44:53.069Z,1009.82
2023-04-06T00:45:53.119Z,1009.80
2023-04-06T00:46:53.060Z,1009.78
2023-04-06T00:47:53.098Z,1009.77
2023-04-06T00:48:53.016Z,1009.75
2023-04-06T00:49:53.047Z,1009.74
2023-04-06T00:50:53.051Z,1009.73
2023-04-06T00:51:53.014Z,1009.72
2023-04-06T00:52:53.027Z,1009.72
2023-04-06T00:53:52.998Z,1009.72
2023-04-06T00:54:52.976Z,1009.72
2023-04-06T00:55:52.969Z,1009.73
2023-04-06T00:56:52.970Z,1009.74
2023-04-06T00:57:52.973Z,1009.73
2023-04-06T00:58:53.034Z,1009.73
2023-04-06T00:59:52.941Z,1009.72
2023-04-06T01:00:52.905Z,1009.71
2023-04-06T01:01:52.992Z,1009.70
2023-04-06T01:02:52.926Z,1009.70
2023-04-06T01:03:52.937Z,1009.69
2023-04-06T01:04:52.889Z,1009.68
2023-04-06T01:05:52.983Z,1009.68
2023-04-06T01:06:52.853Z,1009.68
2023-04-06T01:07:52.850Z,1009.68
2023-04-06T01:08:52.818Z,1009.68
2023-04-06T01:09:52.877Z,1009.68
2023-04-06T01:10:52.830Z,1009.68
2023-04-06T01:11:52.812Z,1009.67
2023-04-06T01:12:52.795Z,1009.67
2023-04-06T01:13:52.796Z,1009.66
2023-04-06T01:14:52.780Z,1009.66
2023-04-06T01:15:52.825Z,1009.65
2023-04-06T01:16:52.766Z,1009.65
2023-04-06T01:17:52.815Z,1009.64
2023-04-06T01:18:52.746Z,1009.63
2023-04-06T01:19:52.750Z,1009.62
2023-04-06T01:20:52.731Z,1009.61
2023-04-06T01:21:52.718Z,1009.61
2023-04-06T01:22:52.711Z,1009.61
2023-04-06T01:23:52.710Z,1009.61
2023-04-06T01:24:52.720Z,1009.61
2023-04-06T01:25:52.674Z,1009.60
2023-04-06T01:26:52.686Z,1009.58
2023-04-06T01:27:52.676Z,1009.57
2023-04-06T01:28:52.657Z,1009.55
2023-04-06T01:29:52.646Z,1009.53
2023-04-06T01:30:52.605Z,1009.52
2023-04-06T01:31:52.701Z,1009.51
2023-04-06T01:32:52.683Z,1009.50
2023-04-06T01:33:52.635Z,1009.49
2023-04-06T01:34:52.590Z,1009.50
2023-04-06T01:35:52.600Z,1009.50
2023-04-06T01:36:52.556Z,1009.50
2023-04-06T01:37:52.537Z,1009.50
2023-04-06T01:38:52.564Z,1009.51
2023-04-06T01:39:52.549Z,1009.52
2023-04-06T01:40:52.551Z,1009.52
2023-04-06T01:41:52.514Z,1009.51
2023-04-06T01:42:52.492Z,1009.50
2023-04-06T01:43:52.531Z,1009.49
2023-04-06T01:44:53.251Z,1009.48
2023-04-06T01:45:52.489Z,1009.46
2023-04-06T01:46:52.564Z,1009.46
2023-04-06T01:47:52.531Z,1009.46
2023-04-06T01:48:52.483Z,1009.45
2023-04-06T01:49:52.466Z,1009.45
2023-04-06T01:50:52.420Z,1009.44
2023-04-06T01:51:52.421Z,1009.41
2023-04-06T01:52:52.384Z,1009.40
2023-04-06T01:53:52.431Z,1009.40
2023-04-06T01:54:52.361Z,1009.40
2023-04-06T01:55:52.359Z,1009.39
2023-04-06T01:56:52.374Z,1009.39
2023-04-06T01:57:52.360Z,1009.40
2023-04-06T01:58:52.369Z,1009.41
2023-04-06T01:59:52.326Z,1009.42
2023-04-06T02:00:52.355Z,1009.42
2023-04-06T02:01:52.343Z,1009.41
2023-04-06T02:02:52.356Z,1009.40
2023-04-06T02:03:52.299Z,1009.39
2023-04-06T02:04:52.283Z,1009.39
2023-04-06T02:05:52.269Z,1009.39
2023-04-06T02:06:52.352Z,1009.38
2023-04-06T02:07:52.276Z,1009.38
2023-04-06T02:08:52.250Z,1009.38
2023-04-06T02:09:52.208Z,1009.39
2023-04-06T02:10:52.226Z,1009.40
2023-04-06T02:11:52.425Z,1009.40
2023-04-06T02:12:52.228Z,1009.40
2023-04-06T02:13:52.187Z,1009.40
2023-04-06T02:14:52.195Z,1009.40
2023-04-06T02:15:52.147Z,1009.39
2023-04-06T02:16:52.259Z,1009.39
2023-04-06T02:17:52.230Z,1009.40
2023-04-06T02:18:52.127Z,1009.41
2023-04-06T02:19:52.104Z,1009.42
2023-04-06T02:20:52.113Z,1009.43
2023-04-06T02:21:52.223Z,1009.43
2023-04-06T02:22:52.114Z,1009.43
2023-04-06T02:23:52.090Z,1009.42
2023-04-06T02:24:52.048Z,1009.42
2023-04-06T02:25:52.062Z,1009.42
2023-04-06T02:26:52.055Z,1009.41
2023-04-06T02:27:52.068Z,1009.41
2023-04-06T02:28:52.022Z,1009.40
2023-04-06T02:29:52.018Z,1009.39
2023-04-06T02:30:51.996Z,1009.38
2023-04-06T02:31:52.044Z,1009.38
2023-04-06T02:32:52.113Z,1009.38
2023-04-06T02:33:51.994Z,1009.38
2023-04-06T02:34:52.005Z,1009.38
2023-04-06T02:35:52.002Z,1009.37
2023-04-06T02:36:51.936Z,1009.35
2023-04-06T02:37:51.936Z,1009.35
2023-04-06T02:38:51.948Z,1009.34
2023-04-06T02:39:51.952Z,1009.34
2023-04-06T02:40:51.916Z,1009.34
2023-04-06T02:41:51.899Z,1009.33
2023-04-06T02:42:51.910Z,1009.33
2023-04-06T02:43:51.920Z,1009.33
2023-04-06T02:44:51.870Z,1009.34
2023-04-06T02:45:51.899Z,1009.34
2023-04-06T02:46:51.839Z,1009.34
2023-04-06T02:47:51.958Z,1009.33
2023-04-06T02:48:51.809Z,1009.34
2023-04-06T02:49:51.823Z,1009.33
2023-04-06T02:50:51.865Z,1009.33
2023-04-06T02:51:51.820Z,1009.32
2023-04-06T02:52:51.789Z,1009.32
2023-04-06T02:53:51.805Z,1009.31
2023-04-06T02:54:51.761Z,1009.31
2023-04-06T02:55:51.764Z,1009.32
2023-04-06T02:56:51.771Z,1009.31
2023-04-06T02:57:51.731Z,1009.30
2023-04-06T02:58:51.791Z,1009.29
2023-04-06T02:59:51.747Z,1009.29
2023-04-06T03:00:51.696Z,1009.29
2023-04-06T03:01:51.766Z,1009.29
2023-04-06T03:02:51.802Z,1009.30
2023-04-06T03:03:51.807Z,1009.31
2023-04-06T03:04:51.701Z,1009.31
2023-04-06T03:05:51.691Z,1009.31
2023-04-06T03:06:51.681Z,1009.31
2023-04-06T03:07:51.671Z,1009.31
2023-04-06T03:08:51.620Z,1009.32
2023-04-06T03:09:51.620Z,1009.32
2023-04-06T03:10:51.664Z,1009.31
2023-04-06T03:11:51.574Z,1009.29
2023-04-06T03:12:51.614Z,1009.29
2023-04-06T03:13:51.623Z,1009.29
2023-04-06T03:14:51.562Z,1009.30
2023-04-06T03:15:51.582Z,1009.30
2023-04-06T03:16:51.547Z,1009.30
2023-04-06T03:17:51.581Z,1009.30
2023-04-06T03:18:51.550Z,1009.29
2023-04-06T03:19:51.503Z,1009.29
2023-04-06T03:20:51.546Z,1009.30
2023-04-06T03:21:51.486Z,1009.30
2023-04-06T03:22:51.488Z,1009.31
2023-04-06T03:23:51.517Z,1009.32
2023-04-06T03:24:51.441Z,1009.31
2023-04-06T03:25:51.453Z,1009.32
2023-04-06T03:26:51.447Z,1009.32
2023-04-06T03:27:51.437Z,1009.33
2023-04-06T03:28:51.425Z,1009.32
2023-04-06T03:29:51.418Z,1009.32
2023-04-06T03:30:51.445Z,1009.32
2023-04-06T03:31:51.476Z,1009.32
2023-04-06T03:32:51.446Z,1009.33
2023-04-06T03:33:51.389Z,1009.33
2023-04-06T03:34:51.401Z,1009.33
2023-04-06T03:35:51.448Z,1009.34
2023-04-06T03:37:02.905Z,1009.34
2023-04-06T03:37:51.324Z,1009.34
2023-04-06T03:38:51.319Z,1009.33
2023-04-06T03:39:51.340Z,1009.34
2023-04-06T03:40:51.303Z,1009.36
2023-04-06T03:41:51.301Z,1009.36
2023-04-06T03:42:51.298Z,1009.38
2023-04-06T03:43:51.348Z,1009.39
2023-04-06T03:44:51.287Z,1009.40
2023-04-06T03:45:51.242Z,1009.40
2023-04-06T03:46:51.288Z,1009.40
2023-04-06T03:47:51.264Z,1009.41
2023-04-06T03:48:51.249Z,1009.41
2023-04-06T03:49:51.229Z,1009.41
2023-04-06T03:50:51.215Z,1009.42
2023-04-06T03:51:51.158Z,1009.43
2023-04-06T03:52:51.187Z,1009.43
2023-04-06T03:53:51.164Z,1009.43
2023-04-06T03:54:51.169Z,1009.42
2023-04-06T03:55:51.185Z,1009.42
2023-04-06T03:56:51.123Z,1009.42
2023-04-06T03:57:51.125Z,1009.44
2023-04-06T03:58:51.253Z,1009.45
2023-04-06T03:59:51.103Z,1009.46
2023-04-06T04:00:51.113Z,1009.46
2023-04-06T04:01:51.145Z,1009.47
2023-04-06T04:02:51.121Z,1009.49
2023-04-06T04:03:51.947Z,1009.48
2023-04-06T04:04:51.077Z,1009.48
2023-04-06T04:05:51.061Z,1009.48
2023-04-06T04:06:51.019Z,1009.47
2023-04-06T04:07:51.052Z,1009.47
2023-04-06T04:08:51.013Z,1009.48
2023-04-06T04:09:51.036Z,1009.49
2023-04-06T04:10:51.031Z,1009.51
2023-04-06T04:11:50.984Z,1009.53
2023-04-06T04:12:50.939Z,1009.54
2023-04-06T04:13:50.947Z,1009.54
2023-04-06T04:14:50.897Z,1009.54
2023-04-06T04:15:50.940Z,1009.54
2023-04-06T04:16:50.997Z,1009.55
2023-04-06T04:17:51.070Z,1009.55
2023-04-06T04:18:50.917Z,1009.55
2023-04-06T04:19:50.902Z,1009.55
2023-04-06T04:20:50.879Z,1009.56
2023-04-06T04:21:50.865Z,1009.57
2023-04-06T04:22:50.909Z,1009.57
2023-04-06T04:23:50.800Z,1009.58
2023-04-06T04:24:50.837Z,1009.59
2023-04-06T04:25:50.853Z,1009.59
2023-04-06T04:26:50.854Z,1009.59
2023-04-06T04:27:50.787Z,1009.59
2023-04-06T04:28:50.842Z,1009.59
2023-04-06T04:29:52.117Z,1009.60
2023-04-06T04:30:50.726Z,1009.59
2023-04-06T04:31:50.777Z,1009.59
2023-04-06T04:32:50.789Z,1009.60
2023-04-06T04:33:50.683Z,1009.62
2023-04-06T04:34:50.697Z,1009.62
2023-04-06T04:35:50.714Z,1009.62
2023-04-06T04:36:50.692Z,1009.63
2023-04-06T04:37:50.703Z,1009.63
2023-04-06T04:38:50.662Z,1009.64
2023-04-06T04:39:50.739Z,1009.65
2023-04-06T04:40:50.690Z,1009.65
2023-04-06T04:41:50.637Z,1009.64
2023-04-06T04:42:50.609Z,1009.63
2023-04-06T04:43:50.618Z,1009.62
2023-04-06T04:44:50.600Z,1009.62
2023-04-06T04:45:50.651Z,1009.62
2023-04-06T04:46:50.626Z,1009.63
2023-04-06T04:47:50.632Z,1009.64
2023-04-06T04:48:50.553Z,1009.65
2023-04-06T04:49:50.578Z,1009.66
2023-04-06T04:50:50.544Z,1009.67
2023-04-06T04:51:50.578Z,1009.68
2023-04-06T04:52:50.567Z,1009.69
2023-04-06T04:53:50.507Z,1009.69
2023-04-06T04:54:50.581Z,1009.69
2023-04-06T04:55:50.514Z,1009.69
2023-04-06T04:56:50.601Z,1009.70
2023-04-06T04:57:50.544Z,1009.68
2023-04-06T04:58:50.478Z,1009.68
2023-04-06T04:59:50.498Z,1009.68
2023-04-06T05:00:50.423Z,1009.69
2023-04-06T05:01:55.223Z,1009.70
2023-04-06T05:02:50.475Z,1009.71
2023-04-06T05:03:50.516Z,1009.71
2023-04-06T05:04:50.485Z,1009.71
2023-04-06T05:05:50.420Z,1009.72
2023-04-06T05:06:50.440Z,1009.71
2023-04-06T05:07:50.375Z,1009.70
2023-04-06T05:08:50.440Z,1009.69
2023-04-06T05:09:50.334Z,1009.69
2023-04-06T05:10:50.465Z,1009.69
2023-04-06T05:11:50.321Z,1009.69
2023-04-06T05:12:50.309Z,1009.68
2023-04-06T05:13:50.324Z,1009.68
2023-04-06T05:14:50.317Z,1009.69
2023-04-06T05:15:50.329Z,1009.69
2023-04-06T05:16:50.290Z,1009.71
2023-04-06T05:17:50.299Z,1009.72
2023-04-06T05:18:50.249Z,1009.73
2023-04-06T05:19:50.257Z,1009.74
2023-04-06T05:20:50.276Z,1009.74
2023-04-06T05:21:50.219Z,1009.74
2023-04-06T05:22:50.306Z,1009.74
2023-04-06T05:23:50.235Z,1009.75
2023-04-06T05:24:50.194Z,1009.76
2023-04-06T05:25:50.220Z,1009.76
2023-04-06T05:26:50.188Z,1009.75
2023-04-06T05:27:50.199Z,1009.74
2023-04-06T05:28:50.157Z,1009.73
2023-04-06T05:29:50.164Z,1009.73
2023-04-06T05:30:50.145Z,1009.73
2023-04-06T05:31:50.205Z,1009.73
2023-04-06T05:32:50.196Z,1009.74
2023-04-06T05:33:50.102Z,1009.75
2023-04-06T05:34:50.146Z,1009.76
2023-04-06T05:35:50.117Z,1009.76
2023-04-06T05:36:50.079Z,1009.76
2023-04-06T05:37:50.065Z,1009.76
2023-04-06T05:38:50.080Z,1009.76
2023-04-06T05:39:50.088Z,1009.78
2023-04-06T05:40:50.161Z,1009.78
2023-04-06T05:41:50.087Z,1009.79
2023-04-06T05:42:50.023Z,1009.80
2023-04-06T05:43:50.017Z,1009.81
2023-04-06T05:44:50.010Z,1009.83
2023-04-06T05:45:50.031Z,1009.86
2023-04-06T05:46:49.986Z,1009.87
2023-04-06T05:47:50.032Z,1009.87
2023-04-06T05:48:49.986Z,1009.87
2023-04-06T05:49:49.958Z,1009.86
2023-04-06T05:50:50.049Z,1009.86
2023-04-06T05:51:49.977Z,1009.85
2023-04-06T05:52:50.579Z,1009.86
2023-04-06T05:53:49.994Z,1009.86
2023-04-06T05:54:49.900Z,1009.86
2023-04-06T05:55:49.910Z,1009.87
2023-04-06T05:56:49.878Z,1009.87
2023-04-06T05:57:49.896Z,1009.88
2023-04-06T05:58:49.955Z,1009.89
2023-04-06T05:59:49.932Z,1009.88
2023-04-06T06:00:49.841Z,1009.87
2023-04-06T06:01:49.837Z,1009.87
2023-04-06T06:02:49.890Z,1009.87
2023-04-06T06:03:50.522Z,1009.86
2023-04-06T06:04:49.898Z,1009.87
2023-04-06T06:05:49.841Z,1009.88
2023-04-06T06:06:49.803Z,1009.87
2023-04-06T06:07:49.774Z,1009.88
2023-04-06T06:08:49.755Z,1009.88
2023-04-06T06:09:49.759Z,1009.89
2023-04-06T06:10:49.726Z,1009.89
2023-04-06T06:11:49.704Z,1009.88
2023-04-06T06:12:49.740Z,1009.88
2023-04-06T06:13:49.807Z,1009.88
2023-04-06T06:14:49.705Z,1009.88
2023-04-06T06:15:49.972Z,1009.86
2023-04-06T06:16:49.731Z,1009.84
2023-04-06T06:17:49.833Z,1009.83
2023-04-06T06:18:49.671Z,1009.82
2023-04-06T06:19:49.686Z,1009.82
2023-04-06T06:20:49.635Z,1009.82
2023-04-06T06:21:49.629Z,1009.82
2023-04-06T06:22:49.604Z,1009.84
2023-04-06T06:23:49.578Z,1009.85
2023-04-06T06:24:49.625Z,1009.85
2023-04-06T06:25:49.560Z,1009.86
2023-04-06T06:26:49.605Z,1009.85
2023-04-06T06:27:49.577Z,1009.85
2023-04-06T06:28:49.561Z,1009.85
2023-04-06T06:29:49.597Z,1009.83
2023-04-06T06:30:49.546Z,1009.82
2023-04-06T06:31:49.571Z,1009.82
2023-04-06T06:32:49.581Z,1009.82
2023-04-06T06:33:49.482Z,1009.83
2023-04-06T06:34:49.488Z,1009.84
2023-04-06T06:35:49.518Z,1009.83
2023-04-06T06:36:51.712Z,1009.81
2023-04-06T06:37:49.454Z,1009.80
2023-04-06T06:38:49.572Z,1009.79
2023-04-06T06:39:49.465Z,1009.78
2023-04-06T06:40:49.443Z,1009.78
2023-04-06T06:41:49.512Z,1009.79
2023-04-06T06:42:49.410Z,1009.79
2023-04-06T06:43:49.414Z,1009.80
2023-04-06T06:44:49.401Z,1009.81
2023-04-06T06:45:49.457Z,1009.83
2023-04-06T06:46:49.372Z,1009.83
2023-04-06T06:47:49.456Z,1009.83
2023-04-06T06:48:49.373Z,1009.83
2023-04-06T06:49:49.342Z,1009.83
2023-04-06T06:50:49.396Z,1009.83
2023-04-06T06:51:49.458Z,1009.83
2023-04-06T06:52:49.299Z,1009.84
2023-04-06T06:53:49.324Z,1009.84
2023-04-06T06:54:49.326Z,1009.86
2023-04-06T06:55:49.265Z,1009.87
2023-04-06T06:56:49.332Z,1009.87
2023-04-06T06:57:49.300Z,1009.87
2023-04-06T06:58:49.346Z,1009.87
2023-04-06T06:59:49.244Z,1009.86
2023-04-06T07:00:49.237Z,1009.85
2023-04-06T07:01:49.211Z,1009.83
2023-04-06T07:02:49.257Z,1009.81
2023-04-06T07:03:49.244Z,1009.79
2023-04-06T07:04:49.357Z,1009.78
2023-04-06T07:05:49.175Z,1009.77
2023-04-06T07:06:49.235Z,1009.76
2023-04-06T07:07:49.171Z,1009.77
2023-04-06T07:08:49.151Z,1009.75
2023-04-06T07:09:49.168Z,1009.74
2023-04-06T07:10:49.329Z,1009.72
2023-04-06T07:11:49.127Z,1009.73
2023-04-06T07:12:49.118Z,1009.75
2023-04-06T07:13:49.212Z,1009.76
2023-04-06T07:14:49.206Z,1009.78
2023-04-06T07:15:49.088Z,1009.80
2023-04-06T07:16:49.388Z,1009.81
2023-04-06T07:17:49.090Z,1009.81
2023-04-06T07:18:49.027Z,1009.82
2023-04-06T07:19:49.029Z,1009.84
2023-04-06T07:20:49.105Z,1009.84
2023-04-06T07:21:49.051Z,1009.85
2023-04-06T07:22:49.003Z,1009.86
2023-04-06T07:23:49.036Z,1009.86
2023-04-06T07:24:48.960Z,1009.88
2023-04-06T07:25:48.990Z,1009.89
2023-04-06T07:26:49.015Z,1009.91
2023-04-06T07:27:49.036Z,1009.92
2023-04-06T07:28:50.245Z,1009.93
2023-04-06T07:29:48.940Z,1009.92
2023-04-06T07:30:48.993Z,1009.92
2023-04-06T07:31:48.969Z,1009.93
2023-04-06T07:32:48.977Z,1009.93
2023-04-06T07:33:49.036Z,1009.93
2023-04-06T07:34:48.926Z,1009.93
2023-04-06T07:35:48.922Z,1009.94
2023-04-06T07:36:48.874Z,1009.94
2023-04-06T07:37:48.830Z,1009.94
2023-04-06T07:38:48.935Z,1009.93
2023-04-06T07:39:48.853Z,1009.93
2023-04-06T07:40:48.786Z,1009.92
2023-04-06T07:41:48.819Z,1009.92
2023-04-06T07:42:48.774Z,1009.92
2023-04-06T07:43:48.971Z,1009.91
2023-04-06T07:44:48.820Z,1009.92
2023-04-06T07:45:48.787Z,1009.91
2023-04-06T07:46:48.792Z,1009.90
2023-04-06T07:47:48.750Z,1009.90
2023-04-06T07:48:48.733Z,1009.88
2023-04-06T07:49:49.290Z,1009.88
2023-04-06T07:50:48.747Z,1009.88
2023-04-06T07:51:48.728Z,1009.87
2023-04-06T07:52:49.606Z,1009.88
2023-04-06T07:53:48.742Z,1009.87
2023-04-06T07:54:48.746Z,1009.86
2023-04-06T07:55:48.674Z,1009.86
2023-04-06T07:56:48.663Z,1009.86
2023-04-06T07:57:48.695Z,1009.85
2023-04-06T07:58:49.192Z,1009.86
2023-04-06T07:59:48.673Z,1009.85
2023-04-06T08:00:48.682Z,1009.85
2023-04-06T08:01:48.597Z,1009.84
2023-04-06T08:02:49.273Z,1009.84
2023-04-06T08:03:48.976Z,1009.83
2023-04-06T08:04:48.801Z,1009.83
2023-04-06T08:05:48.584Z,1009.83
2023-04-06T08:06:49.527Z,1009.82
2023-04-06T08:07:48.553Z,1009.82
2023-04-06T08:08:48.879Z,1009.82
2023-04-06T08:09:48.570Z,1009.82
2023-04-06T08:10:48.717Z,1009.81
2023-04-06T08:11:48.521Z,1009.82
2023-04-06T08:12:48.536Z,1009.82
2023-04-06T08:13:48.545Z,1009.83
2023-04-06T08:14:48.621Z,1009.83
2023-04-06T08:15:48.613Z,1009.83
2023-04-06T08:16:48.602Z,1009.84
2023-04-06T08:17:48.687Z,1009.87
2023-04-06T08:18:48.576Z,1009.88
2023-04-06T08:19:48.642Z,1009.88
2023-04-06T08:20:48.657Z,1009.89
2023-04-06T08:21:48.572Z,1009.89
2023-04-06T08:22:49.226Z,1009.89
2023-04-06T08:23:48.653Z,1009.90
2023-04-06T08:24:48.562Z,1009.91
2023-04-06T08:25:48.609Z,1009.92
2023-04-06T08:26:48.573Z,1009.92
2023-04-06T08:27:48.754Z,1009.92
2023-04-06T08:28:48.576Z,1009.90
2023-04-06T08:29:48.724Z,1009.92
2023-04-06T08:30:48.571Z,1009.90
2023-04-06T08:31:48.604Z,1009.92
2023-04-06T08:32:48.719Z,1009.92
2023-04-06T08:33:48.461Z,1009.92
2023-04-06T08:34:48.500Z,1009.91
2023-04-06T08:35:49.486Z,1009.92
2023-04-06T08:36:48.552Z,1009.92
2023-04-06T08:37:48.508Z,1009.92
2023-04-06T08:38:48.541Z,1009.91
2023-04-06T08:39:48.309Z,1009.91
2023-04-06T08:40:48.621Z,1009.90
2023-04-06T08:41:48.325Z,1009.89
2023-04-06T08:42:48.424Z,1009.87
2023-04-06T08:43:48.214Z,1009.86
2023-04-06T08:44:48.139Z,1009.85
2023-04-06T08:45:48.227Z,1009.85
2023-04-06T08:46:48.968Z,1009.86
2023-04-06T08:47:48.236Z,1009.86
2023-04-06T08:48:49.230Z,1009.85
2023-04-06T08:49:48.116Z,1009.84
2023-04-06T08:50:48.086Z,1009.84
2023-04-06T08:51:48.183Z,1009.84
2023-04-06T08:52:48.147Z,1009.83
2023-04-06T08:53:48.208Z,1009.82
2023-04-06T08:54:48.069Z,1009.82
2023-04-06T08:55:48.065Z,1009.82
2023-04-06T08:56:48.182Z,1009.80
2023-04-06T08:57:48.111Z,1009.79
2023-04-06T08:58:48.097Z,1009.79
2023-04-06T08:59:48.010Z,1009.78
2023-04-06T09:00:48.046Z,1009.79
2023-04-06T09:01:48.007Z,1009.79
2023-04-06T09:02:48.058Z,1009.79
2023-04-06T09:03:48.161Z,1009.79
2023-04-06T09:04:48.459Z,1009.80
2023-04-06T09:05:47.963Z,1009.79
2023-04-06T09:06:47.933Z,1009.80
2023-04-06T09:07:48.028Z,1009.79
2023-04-06T09:08:47.908Z,1009.79
2023-04-06T09:09:47.974Z,1009.79
2023-04-06T09:10:47.918Z,1009.79
2023-04-06T09:11:47.920Z,1009.80
2023-04-06T09:12:47.896Z,1009.78
2023-04-06T09:13:48.180Z,1009.79
2023-04-06T09:14:47.880Z,1009.78
2023-04-06T09:15:47.905Z,1009.79
2023-04-06T09:16:47.870Z,1009.80
2023-04-06T09:17:47.877Z,1009.80
2023-04-06T09:18:47.816Z,1009.80
2023-04-06T09:19:47.933Z,1009.79
2023-04-06T09:20:47.828Z,1009.78
2023-04-06T09:21:47.773Z,1009.78
2023-04-06T09:22:47.861Z,1009.77
2023-04-06T09:23:47.853Z,1009.76
2023-04-06T09:24:47.777Z,1009.76
2023-04-06T09:25:47.786Z,1009.75
2023-04-06T09:26:47.741Z,1009.74
2023-04-06T09:27:47.812Z,1009.74
2023-04-06T09:28:47.776Z,1009.74
2023-04-06T09:29:47.696Z,1009.73
2023-04-06T09:30:47.726Z,1009.73
2023-04-06T09:31:47.701Z,1009.71
2023-04-06T09:32:47.799Z,1009.70
2023-04-06T09:33:47.669Z,1009.68
2023-04-06T09:34:50.011Z,1009.67
2023-04-06T09:35:47.701Z,1009.65
2023-04-06T09:36:47.601Z,1009.64
2023-04-06T09:37:47.632Z,1009.62
2023-04-06T09:38:47.606Z,1009.63
2023-04-06T09:39:47.620Z,1009.62
2023-04-06T09:40:57.697Z,1009.61
2023-04-06T09:41:47.733Z,1009.60
2023-04-06T09:42:47.615Z,1009.60
2023-04-06T09:43:47.563Z,1009.61
2023-04-06T09:44:47.544Z,1009.61
2023-04-06T09:45:47.542Z,1009.58
2023-04-06T09:46:59.782Z,1009.57
2023-04-06T09:47:47.702Z,1009.56
2023-04-06T09:48:47.546Z,1009.56
2023-04-06T09:49:47.479Z,1009.56
2023-04-06T09:50:47.578Z,1009.56
2023-04-06T09:51:47.488Z,1009.54
2023-04-06T09:52:47.495Z,1009.54
2023-04-06T09:53:47.657Z,1009.55
2023-04-06T09:54:47.424Z,1009.55
2023-04-06T09:55:47.432Z,1009.56
2023-04-06T09:56:47.481Z,1009.54
2023-04-06T09:57:47.416Z,1009.54
2023-04-06T09:58:47.491Z,1009.54
2023-04-06T09:59:47.481Z,1009.52
2023-04-06T10:00:47.622Z,1009.52
2023-04-06T10:01:47.410Z,1009.51
2023-04-06T10:02:47.525Z,1009.51
2023-04-06T10:03:47.636Z,1009.49
2023-04-06T10:04:47.556Z,1009.49
2023-04-06T10:05:47.411Z,1009.45
2023-04-06T10:06:47.305Z,1009.44
2023-04-06T10:07:59.455Z,1009.43
2023-04-06T10:08:47.315Z,1009.44
2023-04-06T10:09:47.275Z,1009.45
2023-04-06T10:10:47.249Z,1009.46
2023-04-06T10:11:47.293Z,1009.43
2023-04-06T10:12:47.268Z,1009.42
2023-04-06T10:13:47.244Z,1009.39
2023-04-06T10:14:47.245Z,1009.38
2023-04-06T10:15:47.318Z,1009.37
2023-04-06T10:16:47.279Z,1009.37
2023-04-06T10:17:47.271Z,1009.37
2023-04-06T10:18:47.215Z,1009.36
2023-04-06T10:19:47.216Z,1009.34
2023-04-06T10:20:47.174Z,1009.35
2023-04-06T10:21:47.236Z,1009.35
2023-04-06T10:22:47.161Z,1009.35
2023-04-06T10:23:47.128Z,1009.32
2023-04-06T10:24:47.109Z,1009.32
2023-04-06T10:25:47.168Z,1009.31
2023-04-06T10:26:47.122Z,1009.32
2023-04-06T10:27:47.094Z,1009.32
2023-04-06T10:28:47.136Z,1009.32
2023-04-06T10:29:47.104Z,1009.32
2023-04-06T10:30:47.436Z,1009.32
2023-04-06T10:31:47.130Z,1009.31
2023-04-06T10:32:48.196Z,1009.30
2023-04-06T10:33:47.015Z,1009.26
2023-04-06T10:34:47.085Z,1009.26
2023-04-06T10:35:47.087Z,1009.25
2023-04-06T10:36:47.010Z,1009.22
2023-04-06T10:37:47.000Z,1009.22
2023-04-06T10:38:47.005Z,1009.24
2023-04-06T10:39:46.984Z,1009.24
2023-04-06T10:40:46.951Z,1009.23
2023-04-06T10:41:46.989Z,1009.24
2023-04-06T10:42:46.972Z,1009.21
2023-04-06T10:43:48.225Z,1009.20
2023-04-06T10:44:46.946Z,1009.19
2023-04-06T10:45:47.835Z,1009.18
2023-04-06T10:46:46.878Z,1009.15
2023-04-06T10:47:46.999Z,1009.14
2023-04-06T10:48:46.992Z,1009.16
2023-04-06T10:49:46.906Z,1009.12
2023-04-06T10:50:46.859Z,1009.12
2023-04-06T10:51:46.940Z,1009.12
2023-04-06T10:52:46.952Z,1009.12
2023-04-06T10:53:46.837Z,1009.10
2023-04-06T10:54:48.927Z,1009.10
2023-04-06T10:55:46.817Z,1009.08
2023-04-06T10:56:46.802Z,1009.05
2023-04-06T10:57:46.797Z,1009.03
2023-04-06T10:58:46.804Z,1009.03
2023-04-06T10:59:46.767Z,1009.02
2023-04-06T11:00:50.879Z,1008.98
2023-04-06T11:01:47.715Z,1008.98
2023-04-06T11:02:46.800Z,1008.96
2023-04-06T11:03:46.866Z,1008.95
2023-04-06T11:04:46.936Z,1008.94
2023-04-06T11:05:48.147Z,1008.93
2023-04-06T11:06:46.698Z,1008.94
2023-04-06T11:07:46.690Z,1008.93
2023-04-06T11:08:46.757Z,1008.93
2023-04-06T11:09:53.212Z,1008.95
2023-04-06T11:10:46.668Z,1008.93
2023-04-06T11:11:46.673Z,1008.94
2023-04-06T11:12:46.627Z,1008.97
2023-04-06T11:13:46.638Z,1008.93
2023-04-06T11:14:46.598Z,1008.91
2023-04-06T11:15:46.633Z,1008.89
2023-04-06T11:16:46.651Z,1008.87
2023-04-06T11:17:46.660Z,1008.86
2023-04-06T11:18:46.572Z,1008.87
2023-04-06T11:19:46.593Z,1008.88
2023-04-06T11:20:46.581Z,1008.89
2023-04-06T11:21:46.542Z,1008.88
2023-04-06T11:22:46.573Z,1008.84
2023-04-06T11:23:46.501Z,1008.83
2023-04-06T11:24:46.516Z,1008.83
2023-04-06T11:25:46.741Z,1008.81
2023-04-06T11:26:46.548Z,1008.78
2023-04-06T11:27:46.453Z,1008.75
2023-04-06T11:28:46.464Z,1008.74
2023-04-06T11:29:46.445Z,1008.74
2023-04-06T11:30:46.528Z,1008.72
2023-04-06T11:31:46.433Z,1008.70
2023-04-06T11:32:46.519Z,1008.69
2023-04-06T11:33:46.404Z,1008.66
2023-04-06T11:34:46.395Z,1008.66
2023-04-06T11:35:46.436Z,1008.67
2023-04-06T11:36:46.436Z,1008.59
2023-04-06T11:37:46.420Z,1008.56
2023-04-06T11:38:46.360Z,1008.58
2023-04-06T11:39:46.365Z,1008.55
2023-04-06T11:40:46.337Z,1008.53
2023-04-06T11:41:46.319Z,1008.49
2023-04-06T11:42:47.192Z,1008.49
2023-04-06T11:43:46.305Z,1008.49
2023-04-06T11:44:46.366Z,1008.48
2023-04-06T11:45:46.262Z,1008.45
2023-04-06T11:46:46.391Z,1008.44
2023-04-06T11:47:46.321Z,1008.42
2023-04-06T11:48:46.363Z,1008.43
2023-04-06T11:49:46.273Z,1008.46
2023-04-06T11:50:46.308Z,1008.43
2023-04-06T11:51:46.202Z,1008.41
2023-04-06T11:52:46.232Z,1008.40
2023-04-06T11:53:46.200Z,1008.38
2023-04-06T11:54:46.197Z,1008.35
2023-04-06T11:55:46.196Z,1008.32
2023-04-06T11:56:46.189Z,1008.33
2023-04-06T11:57:46.196Z,1008.33
2023-04-06T11:58:46.170Z,1008.30
2023-04-06T11:59:46.179Z,1008.29
2023-04-06T12:00:47.351Z,1008.31
2023-04-06T12:01:46.258Z,1008.30
2023-04-06T12:02:46.224Z,1008.29
2023-04-06T12:03:46.429Z,1008.28
2023-04-06T12:04:46.238Z,1008.30
2023-04-06T12:05:46.068Z,1008.25